Time;durP1;ratioP1;P1;durP2;ratioP2;P2;SDS_P1;SDS_P2;PMS_P1;PMS_P2;Temp;Humidity;BMP_temperature;BMP_pressure;BME280_temperature;BME280_humidity;BME280_pressure;Samples;Min_cycle;Max_cycle;Signal;HPM_P1;HPM_P2
2021/11/28 00:01:04;;;;;;;60.78;54.15;;;;;;;1.95;84.04;99340.00;4958024;29;20035;-84
2021/11/28 00:03:30;;;;;;;61.10;54.17;;;;;;;2.04;84.02;99343.28;4973590;28;20100;-84
2021/11/28 00:06:03;;;;;;;60.17;53.77;;;;;;;2.02;83.35;99344.97;4955942;29;20035;-85
2021/11/28 00:15:54;;;;;;;63.22;56.45;;;;;;;1.95;84.41;99347.59;4970964;29;20094;-85
2021/11/28 00:18:20;;;;;;;66.53;57.20;;;;;;;1.88;84.16;99338.44;4969496;28;20162;-84
2021/11/28 00:20:45;;;;;;;64.50;55.45;;;;;;;1.93;83.27;99339.19;4954148;29;20033;-85
2021/11/28 00:23:10;;;;;;;64.97;55.30;;;;;;;1.78;82.96;99317.47;4937842;29;20087;-85
2021/11/28 00:25:36;;;;;;;61.37;54.57;;;;;;;1.91;83.36;99337.53;4935417;29;20028;-85
2021/11/28 00:28:01;;;;;;;63.93;55.83;;;;;;;1.90;83.54;99334.16;4950239;29;20037;-85
2021/11/28 00:30:28;;;;;;;62.30;54.70;;;;;;;1.78;83.49;99341.94;4934847;29;20023;-84
2021/11/28 00:32:54;;;;;;;61.50;54.92;;;;;;;1.68;82.86;99340.44;4949287;29;20031;-84
2021/11/28 00:35:19;;;;;;;62.15;55.47;;;;;;;1.74;83.70;99348.78;4933759;29;20028;-83
2021/11/28 00:37:45;;;;;;;62.17;55.37;;;;;;;1.56;84.35;99349.88;4933517;29;20151;-85
2021/11/28 00:40:11;;;;;;;60.17;54.10;;;;;;;1.24;83.58;99343.56;4942464;29;20033;-84
2021/11/28 00:42:37;;;;;;;62.33;55.70;;;;;;;1.43;84.49;99345.81;4953599;29;20113;-84
2021/11/28 00:45:03;;;;;;;62.25;54.80;;;;;;;1.32;84.51;99337.53;4952911;29;20027;-85
2021/11/28 00:47:29;;;;;;;61.05;54.47;;;;;;;1.25;83.81;99347.75;4952729;29;20027;-85
2021/11/28 00:52:28;;;;;;;62.38;55.60;;;;;;;1.42;85.02;99355.13;4969213;29;20019;-84
2021/11/28 00:54:54;;;;;;;62.23;55.27;;;;;;;1.50;84.57;99339.84;4954169;29;20034;-85
2021/11/28 00:57:19;;;;;;;62.77;54.73;;;;;;;1.11;83.73;99338.66;4957704;29;20034;-85
2021/11/28 00:59:45;;;;;;;59.05;53.05;;;;;;;1.54;84.22;99346.50;4954269;29;20384;-85
2021/11/28 01:02:10;;;;;;;61.13;54.57;;;;;;;1.66;84.12;99352.28;4954161;29;20038;-84
2021/11/28 01:04:37;;;;;;;60.43;53.83;;;;;;;1.57;84.11;99343.94;4954035;28;20054;-85
2021/11/28 01:07:03;;;;;;;61.20;54.58;;;;;;;1.37;83.07;99366.19;4954221;29;20023;-85
2021/11/28 01:09:28;;;;;;;61.03;54.43;;;;;;;1.54;83.90;99354.13;4954032;29;20038;-85
2021/11/28 01:11:53;;;;;;;59.90;53.70;;;;;;;1.40;84.45;99356.84;4955787;29;20509;-84
2021/11/28 01:14:19;;;;;;;59.73;53.30;;;;;;;1.52;84.00;99360.91;4957427;29;20031;-85
2021/11/28 01:16:44;;;;;;;62.23;55.13;;;;;;;1.68;84.21;99359.00;4963238;28;20023;-85
2021/11/28 01:19:10;;;;;;;62.53;55.07;;;;;;;1.69;83.70;99363.22;4963230;28;20027;-84
2021/11/28 01:21:37;;;;;;;60.60;53.97;;;;;;;1.71;83.04;99363.19;4963500;28;20018;-84
2021/11/28 01:24:02;;;;;;;61.55;55.00;;;;;;;1.66;83.11;99368.34;4963590;28;20043;-86
2021/11/28 01:26:31;;;;;;;61.03;54.40;;;;;;;1.69;83.01;99362.41;4962918;28;20023;-84
2021/11/28 01:28:56;;;;;;;60.40;53.88;;;;;;;1.66;83.43;99372.56;4962099;28;20038;-85
2021/11/28 01:31:22;;;;;;;62.10;55.17;;;;;;;1.69;83.69;99370.00;4962490;28;20011;-85
2021/11/28 01:33:47;;;;;;;70.27;56.13;;;;;;;1.74;83.39;99375.84;4962650;28;20038;-84
2021/11/28 01:36:13;;;;;;;63.70;55.17;;;;;;;1.65;83.71;99351.44;4962582;28;20034;-84
2021/11/28 01:38:38;;;;;;;60.23;53.17;;;;;;;1.80;84.13;99381.66;4961238;29;20091;-84
2021/11/28 01:41:04;;;;;;;61.93;55.20;;;;;;;1.80;84.10;99378.28;4962208;28;20027;-84
2021/11/28 01:43:29;;;;;;;64.13;55.13;;;;;;;1.74;83.77;99378.38;4962598;28;20015;-84
2021/11/28 01:45:54;;;;;;;60.53;53.97;;;;;;;1.29;84.21;99362.91;4961400;28;20030;-82
2021/11/28 01:48:20;;;;;;;60.77;54.20;;;;;;;1.35;84.46;99378.03;4962194;28;20066;-83
2021/11/28 01:50:49;;;;;;;60.63;54.10;;;;;;;1.61;84.54;99381.06;4962190;28;20047;-84
2021/11/28 01:53:18;;;;;;;60.05;53.72;;;;;;;1.75;83.79;99383.41;4977957;28;20171;-86
2021/11/28 01:55:45;;;;;;;61.75;54.60;;;;;;;1.73;83.62;99390.19;4962315;28;20070;-85
2021/11/28 01:58:11;;;;;;;66.20;55.45;;;;;;;1.66;83.55;99382.72;4961473;28;20061;-85
2021/11/28 02:00:42;;;;;;;61.27;54.73;;;;;;;1.83;83.22;99388.38;4952314;29;20066;-85
2021/11/28 02:03:11;;;;;;;59.40;53.10;;;;;;;1.76;83.45;99384.25;4950632;29;20066;-85
2021/11/28 02:05:36;;;;;;;59.47;53.22;;;;;;;1.78;83.30;99387.59;4951049;29;20102;-84
2021/11/28 02:08:02;;;;;;;66.47;54.78;;;;;;;1.57;83.07;99381.97;4965797;28;20038;-84
2021/11/28 02:10:27;;;;;;;61.53;55.00;;;;;;;1.60;84.19;99379.38;4950673;29;20031;-84
2021/11/28 02:12:53;;;;;;;62.10;55.13;;;;;;;1.59;83.87;99367.59;4952814;29;20054;-85
2021/11/28 02:15:20;;;;;;;60.63;54.40;;;;;;;1.50;83.85;99371.94;4955074;28;20118;-83
2021/11/28 02:17:48;;;;;;;;;;;;;;;1.39;83.84;99372.09;4955599;29;20257;-84
2021/11/28 02:20:14;;;;;;;59.20;52.95;;;;;;;1.39;84.36;99379.69;4954903;28;19911;-84
2021/11/28 02:22:40;;;;;;;62.38;54.47;;;;;;;1.56;84.71;99371.84;4939038;29;20044;-84
2021/11/28 02:25:07;;;;;;;60.35;53.92;;;;;;;1.62;84.58;99365.00;4937914;29;20035;-84
2021/11/28 02:27:33;;;;;;;62.53;55.78;;;;;;;1.36;84.89;99351.84;4937872;29;20112;-84
2021/11/28 02:29:58;;;;;;;60.00;53.83;;;;;;;1.58;84.92;99365.06;4937599;29;20031;-85
2021/11/28 02:32:24;;;;;;;60.78;54.25;;;;;;;1.65;84.69;99361.56;4937712;29;20040;-84
2021/11/28 02:34:49;;;;;;;60.20;53.87;;;;;;;1.35;84.41;99362.84;4953268;29;20042;-83
2021/11/28 02:37:14;;;;;;;60.83;54.40;;;;;;;1.48;84.99;99366.91;4935054;29;20059;-85
2021/11/28 02:39:40;;;;;;;60.97;54.50;;;;;;;1.57;84.64;99364.22;4933294;29;20418;-84
2021/11/28 02:42:06;;;;;;;61.13;54.78;;;;;;;1.66;85.07;99370.03;4935194;29;20028;-85
2021/11/28 02:44:33;;;;;;;60.43;54.03;;;;;;;1.50;84.43;99367.72;4936755;29;20035;-85
2021/11/28 02:46:58;;;;;;;60.70;54.10;;;;;;;1.60;84.45;99358.28;4936217;29;20019;-85
2021/11/28 02:49:24;;;;;;;60.07;53.70;;;;;;;1.54;83.93;99360.88;4936238;29;20058;-85
2021/11/28 02:51:49;;;;;;;58.93;52.93;;;;;;;1.66;84.73;99362.44;4937326;29;20116;-84
2021/11/28 02:54:14;;;;;;;60.10;53.70;;;;;;;1.70;84.08;99375.03;4943276;29;20032;-86
2021/11/28 02:56:42;;;;;;;61.60;54.47;;;;;;;1.77;84.06;99365.66;4951536;29;20038;-84
2021/11/28 02:59:07;;;;;;;61.17;54.72;;;;;;;1.68;83.63;99371.69;4948884;29;20019;-85
2021/11/28 10:09:21;;;;;;;65.25;56.05;;;;;;;3.20;79.70;99502.09;4949217;29;20055;-85
2021/11/28 10:12:13;;;;;;;62.97;55.93;;;;;;;3.41;78.08;99503.38;4921535;29;20036;-85
2021/11/28 10:14:39;;;;;;;66.28;57.17;;;;;;;3.38;78.13;99514.44;4926256;28;20034;-85
2021/11/28 10:17:04;;;;;;;61.17;54.60;;;;;;;3.18;78.93;99501.25;4949480;29;20020;-86
2021/11/28 10:19:32;;;;;;;68.10;57.20;;;;;;;3.38;78.66;99514.44;4933349;29;20020;-85
2021/11/28 10:21:58;;;;;;;62.92;55.53;;;;;;;3.19;79.79;99498.69;4940057;29;20027;-84
2021/11/28 10:24:24;;;;;;;64.63;55.63;;;;;;;3.30;78.86;99498.50;4931681;29;20323;-85
2021/11/28 10:26:54;;;;;;;61.90;54.87;;;;;;;3.35;78.37;99494.16;4947186;29;20095;-85
2021/11/28 10:29:20;;;;;;;70.90;57.08;;;;;;;3.30;78.02;99498.50;4950409;29;20047;-85
2021/11/28 10:31:50;;;;;;;63.00;56.08;;;;;;;3.38;78.95;99508.53;4951141;29;20027;-84
2021/11/28 10:34:22;;;;;;;65.95;57.42;;;;;;;3.48;78.87;99496.47;4942972;29;20063;-85
2021/11/28 10:36:48;;;;;;;69.00;57.00;;;;;;;3.69;77.92;99506.25;4970920;28;20031;-86
2021/11/28 10:39:19;;;;;;;67.32;57.55;;;;;;;3.41;78.82;99498.31;4950334;29;20166;-86
2021/11/28 10:41:50;;;;;;;73.50;58.58;;;;;;;3.46;77.98;99481.25;4929847;29;20031;-88
2021/11/28 10:44:20;;;;;;;70.47;58.40;;;;;;;3.51;79.54;99497.25;4944846;28;20027;-84
2021/11/28 10:46:46;;;;;;;76.55;58.78;;;;;;;3.36;79.63;99498.41;4941828;29;20036;-86
2021/11/28 10:49:21;;;;;;;;;;;;;;;3.39;79.41;99500.88;4923324;29;20043;-85
2021/11/28 10:51:50;;;;;;;67.25;57.45;;;;;;;3.37;80.38;99489.91;4932129;29;20394;-85
2021/11/28 10:54:27;;;;;;;67.40;57.63;;;;;;;3.44;79.66;99499.06;4925764;29;20558;-85
2021/11/28 10:57:14;;;;;;;64.47;57.17;;;;;;;3.45;78.81;99508.41;4924374;29;20021;-85
2021/11/28 10:59:45;;;;;;;65.35;55.95;;;;;;;3.43;78.40;99496.56;4915865;29;20036;-86
2021/11/28 11:02:27;;;;;;;66.22;57.47;;;;;;;3.15;78.25;99503.84;4940114;29;20047;-86
2021/11/28 11:04:54;;;;;;;63.13;56.30;;;;;;;3.24;78.83;99489.28;4942070;29;20020;-85
2021/11/28 11:07:22;;;;;;;64.90;57.53;;;;;;;3.25;79.52;99505.38;4926738;29;20032;-85
2021/11/28 11:09:50;;;;;;;65.40;57.90;;;;;;;3.34;78.38;99512.84;4935358;29;20100;-85
2021/11/28 11:12:34;;;;;;;63.67;56.75;;;;;;;3.38;78.80;99506.00;4921396;29;20015;-87
2021/11/28 11:14:59;;;;;;;64.22;56.47;;;;;;;3.47;78.85;99504.97;4946442;29;20027;-85
2021/11/28 11:17:31;;;;;;;64.50;55.77;;;;;;;3.41;78.03;99509.31;4934868;29;20039;-84
2021/11/28 11:19:58;;;;;;;63.95;56.92;;;;;;;3.41;78.82;99511.84;4952981;29;20023;-86
2021/11/28 11:22:27;;;;;;;68.57;57.75;;;;;;;3.49;78.50;99519.34;4929913;29;20051;-84
2021/11/28 11:24:54;;;;;;;63.28;56.53;;;;;;;3.59;79.18;99514.91;4940791;29;20103;-85
2021/11/28 11:27:25;;;;;;;66.63;57.55;;;;;;;3.51;77.66;99498.97;4979342;28;20015;-85
2021/11/28 11:29:53;;;;;;;69.35;58.75;;;;;;;3.52;77.61;99518.44;5023853;23;20110;-84
2021/11/28 11:32:22;;;;;;;62.92;56.08;;;;;;;3.63;77.60;99516.53;4958911;28;20030;-85
2021/11/28 11:34:50;;;;;;;66.03;57.72;;;;;;;3.75;77.13;99515.44;4954130;29;20023;-83
2021/11/28 11:37:18;;;;;;;64.32;57.25;;;;;;;3.80;77.07;99519.56;4938249;29;20034;-85
2021/11/28 11:39:45;;;;;;;62.92;56.13;;;;;;;3.86;77.16;99518.59;4956965;29;20027;-85
2021/11/28 11:42:16;;;;;;;64.20;56.40;;;;;;;3.94;76.09;99513.34;4956896;29;20038;-86
2021/11/28 11:44:46;;;;;;;64.18;57.03;;;;;;;3.79;77.70;99522.16;4962407;28;20051;-86
2021/11/28 11:47:13;;;;;;;65.65;56.95;;;;;;;3.62;78.54;99497.03;4981213;28;20027;-86
2021/11/28 11:49:39;;;;;;;63.00;56.38;;;;;;;3.37;78.52;99507.72;4981405;28;20233;-86
2021/11/28 11:52:06;;;;;;;68.70;58.60;;;;;;;3.51;78.88;99511.69;4965944;28;20015;-86
2021/11/28 11:54:34;;;;;;;;;;;;;;;3.69;78.54;99521.50;4982058;28;20027;-84
2021/11/28 11:57:33;;;;;;;70.18;57.47;;;;;;;3.58;78.28;99531.88;4965915;28;19934;-86
2021/11/28 12:00:09;;;;;;;66.53;56.92;;;;;;;3.70;77.99;99533.34;4981453;28;20027;-86
2021/11/28 12:02:43;;;;;;;64.22;57.25;;;;;;;3.80;77.17;99521.25;4965434;28;20024;-84
2021/11/28 12:05:31;;;;;;;62.50;55.72;;;;;;;3.63;76.44;99519.91;4981488;28;20047;-85
2021/11/28 12:07:59;;;;;;;69.70;57.72;;;;;;;3.78;76.00;99528.91;4964928;28;20050;-87
2021/11/28 12:10:37;;;;;;;63.55;55.83;;;;;;;3.86;75.79;99530.50;4964505;28;20095;-84
2021/11/28 12:13:12;;;;;;;64.07;56.08;;;;;;;3.78;75.98;99516.19;4970637;28;20003;-85
2021/11/28 12:15:48;;;;;;;65.25;56.30;;;;;;;3.73;76.09;99523.09;4939454;28;20016;-87
2021/11/28 12:18:48;;;;;;;63.00;54.92;;;;;;;3.76;74.13;99528.13;4937218;29;20039;-87
2021/11/28 12:21:17;;;;;;;60.03;53.83;;;;;;;3.69;74.57;99524.03;4959824;28;20040;-86
2021/11/28 12:23:42;;;;;;;60.92;54.42;;;;;;;3.77;73.65;99521.31;4962241;28;20062;-86
2021/11/28 12:26:28;;;;;;;62.87;54.67;;;;;;;3.81;74.19;99520.41;4958638;29;20024;-86
2021/11/28 12:29:23;;;;;;;62.60;54.10;;;;;;;3.79;74.60;99520.44;4924762;29;20115;-86
2021/11/28 12:31:50;;;;;;;67.45;56.28;;;;;;;3.85;74.45;99521.16;4934640;29;20059;-86
2021/11/28 12:34:26;;;;;;;66.63;55.70;;;;;;;3.80;75.66;99511.94;4948286;29;20031;-86
2021/11/28 12:36:57;;;;;;;61.58;54.80;;;;;;;3.98;74.03;99523.44;4934312;29;20038;-86
2021/11/28 12:39:23;;;;;;;72.72;55.50;;;;;;;3.80;75.09;99522.13;4941160;29;20031;-85
2021/11/28 12:41:51;;;;;;;;;;;;;;;3.77;74.21;99524.72;4947039;29;20380;-85
2021/11/28 12:44:18;;;;;;;61.95;55.03;;;;;;;3.80;74.97;99528.88;4975082;28;19910;-85
2021/11/28 12:46:47;;;;;;;62.72;55.35;;;;;;;3.76;75.60;99509.50;4970413;28;20138;-84
2021/11/28 12:49:24;;;;;;;60.58;54.22;;;;;;;3.77;75.32;99519.63;4950352;29;20035;-86
2021/11/28 12:51:50;;;;;;;60.47;54.40;;;;;;;3.73;75.92;99530.72;4954097;29;20087;-86
2021/11/28 12:54:27;;;;;;;63.15;55.88;;;;;;;3.61;75.77;99525.88;4932799;29;20031;-85
2021/11/28 12:57:20;;;;;;;65.25;56.63;;;;;;;3.57;75.70;99526.81;4930773;29;20553;-85
2021/11/28 13:00:22;;;;;;;69.80;57.03;;;;;;;3.75;75.47;99525.59;4946266;29;20055;-85
2021/11/28 13:02:50;;;;;;;68.00;56.28;;;;;;;3.65;76.59;99524.13;4947089;29;20103;-84
2021/11/28 13:05:46;;;;;;;63.70;55.88;;;;;;;3.71;75.78;99535.00;4949148;29;20051;-85
2021/11/28 13:08:11;;;;;;;69.43;57.45;;;;;;;3.53;76.96;99530.28;4943510;29;20057;-87
2021/11/28 13:10:44;;;;;;;66.40;56.47;;;;;;;3.63;75.45;99525.00;4942428;29;20067;-84
2021/11/28 13:13:18;;;;;;;64.45;56.80;;;;;;;3.74;75.77;99523.94;4933095;29;20058;-84
2021/11/28 13:15:51;;;;;;;64.30;55.97;;;;;;;3.80;75.65;99528.88;4933854;29;20115;-85
2021/11/28 13:18:19;;;;;;;74.70;58.13;;;;;;;3.54;76.28;99525.16;4930614;29;20028;-85
2021/11/28 13:20:45;;;;;;;63.65;56.10;;;;;;;3.62;75.46;99530.09;4926052;29;20031;-85
2021/11/28 13:23:13;;;;;;;62.17;55.60;;;;;;;3.51;76.75;99521.84;4938812;29;20007;-84
2021/11/28 13:25:42;;;;;;;67.47;57.67;;;;;;;3.42;77.43;99533.00;4966321;28;20019;-83
2021/11/28 13:28:11;;;;;;;80.25;59.03;;;;;;;3.36;76.41;99523.81;4940482;29;20031;-85
2021/11/28 13:30:40;;;;;;;64.82;56.78;;;;;;;3.39;75.93;99539.00;4953279;28;20031;-85
2021/11/28 13:33:11;;;;;;;62.67;55.53;;;;;;;3.37;76.06;99535.66;4955818;29;20035;-84
2021/11/28 13:35:37;;;;;;;61.83;55.17;;;;;;;3.23;77.05;99512.19;4941016;29;20017;-85
2021/11/28 13:38:42;;;;;;;74.80;58.05;;;;;;;3.38;76.71;99542.41;4971747;29;20055;-86
2021/11/28 13:41:18;;;;;;;61.90;55.05;;;;;;;3.25;76.18;99516.38;4941240;29;20104;-84
2021/11/28 13:44:01;;;;;;;62.30;55.47;;;;;;;3.37;76.31;99535.66;4962865;29;20047;-84
2021/11/28 13:46:44;;;;;;;69.22;56.28;;;;;;;3.32;76.32;99534.06;4937728;28;20036;-85
2021/11/28 13:49:22;;;;;;;66.00;56.20;;;;;;;3.36;76.24;99543.31;4937135;29;20036;-85
2021/11/28 13:52:23;;;;;;;74.85;58.67;;;;;;;3.30;75.85;99539.16;4941905;29;20032;-84
2021/11/28 13:54:49;;;;;;;64.65;55.40;;;;;;;3.29;75.37;99529.84;4946435;29;20040;-83
2021/11/28 13:57:24;;;;;;;70.15;56.92;;;;;;;3.32;75.83;99545.06;4938256;29;20020;-84
2021/11/28 13:59:51;;;;;;;63.95;55.75;;;;;;;3.29;76.56;99542.56;4948972;29;20054;-85
2021/11/28 14:02:22;;;;;;;62.42;55.50;;;;;;;3.17;76.22;99530.09;4954346;29;20026;-85
2021/11/28 14:04:50;;;;;;;62.42;55.25;;;;;;;3.02;76.68;99529.50;4942508;29;20037;-85
2021/11/28 14:07:19;;;;;;;64.82;58.08;;;;;;;3.07;76.71;99532.78;4951031;29;20129;-85
2021/11/28 14:10:05;;;;;;;69.80;57.03;;;;;;;3.15;76.28;99539.44;4940727;29;20043;-85
2021/11/28 14:12:32;;;;;;;63.30;54.65;;;;;;;2.98;76.49;99527.03;4949123;28;20030;-85
2021/11/28 14:15:00;;;;;;;61.13;54.88;;;;;;;3.04;76.61;99539.63;4959771;28;20016;-85
2021/11/28 14:17:28;;;;;;;71.93;57.25;;;;;;;2.91;77.18;99528.81;4952915;28;20016;-84
2021/11/28 14:19:55;;;;;;;74.88;57.92;;;;;;;3.08;76.79;99542.06;4932734;28;20032;-86
2021/11/28 14:22:32;;;;;;;65.57;56.47;;;;;;;3.13;76.72;99546.25;4941582;29;20030;-85
2021/11/28 14:25:16;;;;;;;66.65;56.75;;;;;;;3.14;77.04;99558.09;4932171;29;20024;-85
2021/11/28 14:27:42;;;;;;;67.68;56.35;;;;;;;2.96;76.80;99552.47;4955582;28;20040;-86
2021/11/28 14:30:08;;;;;;;65.60;56.30;;;;;;;2.84;77.30;99550.13;4945075;29;20038;-86
2021/11/28 14:32:33;;;;;;;70.03;58.33;;;;;;;2.81;77.25;99534.91;4958337;28;20054;-86
2021/11/28 14:35:19;;;;;;;65.43;56.70;;;;;;;2.79;78.09;99551.91;4970152;28;20192;-86
2021/11/28 14:38:05;;;;;;;63.75;56.60;;;;;;;2.80;77.92;99558.63;4939043;28;20043;-86
2021/11/28 14:40:30;;;;;;;72.88;58.08;;;;;;;2.81;78.41;99562.84;4955286;28;20028;-86
2021/11/28 14:43:01;;;;;;;63.43;56.53;;;;;;;2.71;78.13;99560.44;4927820;28;20020;-86
2021/11/28 14:45:27;;;;;;;67.30;57.15;;;;;;;2.70;78.29;99568.09;4939695;28;20083;-86
2021/11/28 14:48:11;;;;;;;62.23;55.47;;;;;;;2.67;78.46;99573.22;4943914;28;20039;-85
2021/11/28 14:50:49;;;;;;;65.75;56.75;;;;;;;2.68;78.52;99578.28;4937762;29;20027;-85
2021/11/28 14:53:15;;;;;;;67.70;57.30;;;;;;;2.66;78.86;99587.63;4957972;28;20060;-86
2021/11/28 14:55:46;;;;;;;65.93;56.67;;;;;;;2.67;78.68;99589.31;4930884;28;20044;-86
2021/11/28 14:58:28;;;;;;;66.40;56.60;;;;;;;2.54;78.08;99588.66;4952156;29;20302;-86
2021/11/28 15:01:05;;;;;;;61.85;55.10;;;;;;;2.57;78.95;99589.47;4939168;29;20060;-86
2021/11/28 15:03:30;;;;;;;61.80;55.03;;;;;;;2.46;79.13;99566.75;4927169;29;20032;-86
2021/11/28 15:06:03;;;;;;;66.20;56.33;;;;;;;2.60;78.91;99587.72;4914934;29;20036;-86
2021/11/28 15:08:37;;;;;;;74.50;57.72;;;;;;;2.54;77.86;99573.41;4949168;29;20028;-85
2021/11/28 15:11:03;;;;;;;68.13;57.60;;;;;;;2.51;78.78;99582.75;4934810;29;20095;-86
2021/11/28 15:13:29;;;;;;;61.97;55.43;;;;;;;2.31;79.04;99568.66;4933966;29;20036;-87
2021/11/28 15:15:59;;;;;;;64.18;55.97;;;;;;;2.40;78.89;99584.59;4931700;29;20027;-86
2021/11/28 15:18:26;;;;;;;62.30;55.55;;;;;;;2.41;79.18;99589.66;4933366;29;20082;-85
2021/11/28 15:20:52;;;;;;;62.78;55.90;;;;;;;2.31;78.69;99586.41;4939882;28;20012;-87
2021/11/28 15:23:17;;;;;;;61.30;54.53;;;;;;;2.34;78.54;99594.00;4928263;28;20019;-87
2021/11/28 15:25:42;;;;;;;61.47;54.87;;;;;;;2.31;79.40;99588.94;4959530;28;20023;-86
2021/11/28 15:28:08;;;;;;;76.27;57.37;;;;;;;2.24;78.79;99582.25;4945849;28;20016;-86
2021/11/28 15:30:34;;;;;;;64.97;56.00;;;;;;;2.32;79.26;99602.47;4934039;29;20120;-84
2021/11/28 15:33:00;;;;;;;66.13;56.00;;;;;;;2.22;78.83;99593.31;4939880;29;20047;-85
2021/11/28 15:35:27;;;;;;;64.55;55.45;;;;;;;2.21;78.58;99586.53;4947395;29;20141;-85
2021/11/28 15:37:54;;;;;;;67.93;57.53;;;;;;;2.15;78.88;99585.78;4932373;29;20466;-85
2021/11/28 15:40:24;;;;;;;63.85;55.90;;;;;;;2.20;79.25;99600.94;4931681;29;20023;-86
2021/11/28 15:42:50;;;;;;;62.83;56.15;;;;;;;2.20;78.71;99603.47;4939861;29;20042;-86
2021/11/28 15:45:16;;;;;;;64.55;56.08;;;;;;;2.05;79.03;99603.66;4931433;29;20028;-85
2021/11/28 15:47:41;;;;;;;67.90;57.13;;;;;;;2.22;79.15;99611.91;4942790;29;20032;-86
2021/11/28 15:50:07;;;;;;;62.57;55.67;;;;;;;2.33;79.33;99615.13;4943385;29;20468;-86
2021/11/28 15:52:33;;;;;;;67.93;57.53;;;;;;;2.37;78.56;99610.88;4928560;29;20024;-86
2021/11/28 15:54:59;;;;;;;71.10;58.67;;;;;;;2.39;79.15;99610.84;4929294;29;20039;-85
2021/11/28 15:57:24;;;;;;;67.57;57.07;;;;;;;2.31;78.75;99609.25;4927012;29;20028;-85
2021/11/28 15:59:49;;;;;;;73.20;58.60;;;;;;;2.29;78.84;99593.22;4949464;29;20286;-86
2021/11/28 16:02:15;;;;;;;67.90;57.70;;;;;;;2.46;78.82;99620.06;4932099;29;20039;-85
2021/11/28 16:04:40;;;;;;;63.10;56.10;;;;;;;2.42;78.40;99603.19;4931584;29;20027;-85
2021/11/28 16:07:06;;;;;;;73.77;57.20;;;;;;;2.54;78.36;99618.25;5018292;23;20051;-85
2021/11/28 16:09:31;;;;;;;64.27;56.70;;;;;;;2.50;77.87;99602.22;4977980;28;20046;-85
2021/11/28 16:11:57;;;;;;;66.18;56.55;;;;;;;2.51;77.53;99618.28;4972973;28;20026;-85
2021/11/28 16:14:22;;;;;;;68.07;55.53;;;;;;;2.54;77.55;99613.19;4975322;28;20019;-85
2021/11/28 16:16:48;;;;;;;66.05;55.70;;;;;;;2.53;78.14;99616.59;4972805;28;20398;-85
2021/11/28 16:19:14;;;;;;;66.65;56.05;;;;;;;2.46;78.31;99615.81;4956619;29;20054;-86
2021/11/28 16:21:40;;;;;;;69.60;59.83;;;;;;;2.45;78.40;99613.28;4988416;28;20070;-85
2021/11/28 16:24:05;;;;;;;68.03;58.00;;;;;;;2.34;78.60;99601.59;4972911;29;20030;-85
2021/11/28 16:26:31;;;;;;;69.77;58.30;;;;;;;2.36;78.49;99615.09;4960600;29;20099;-85
2021/11/28 16:28:56;;;;;;;66.57;57.20;;;;;;;2.31;78.86;99616.88;4970806;28;20046;-85
2021/11/28 16:31:22;;;;;;;67.37;57.17;;;;;;;2.25;78.71;99611.88;4998682;28;20133;-84
2021/11/28 16:33:47;;;;;;;74.97;59.77;;;;;;;2.23;78.81;99608.50;4979871;28;20015;-85
2021/11/28 16:36:13;;;;;;;70.67;58.80;;;;;;;2.24;79.32;99622.03;4963882;29;20294;-85
2021/11/28 16:38:40;;;;;;;73.93;60.27;;;;;;;2.21;79.36;99620.34;4995257;28;20047;-85
2021/11/28 16:41:05;;;;;;;79.28;60.97;;;;;;;2.18;79.75;99625.50;4982596;28;20018;-83
2021/11/28 16:43:31;;;;;;;74.50;59.47;;;;;;;2.15;79.53;99626.38;4983302;28;20027;-84
2021/11/28 16:45:56;;;;;;;76.10;59.77;;;;;;;2.12;79.17;99621.31;4998583;28;20014;-84
2021/11/28 16:48:21;;;;;;;78.30;61.27;;;;;;;2.15;79.54;99630.59;4963646;28;20039;-84
2021/11/28 16:50:47;;;;;;;70.60;59.27;;;;;;;2.12;79.99;99630.66;4979511;28;20016;-85
2021/11/28 16:53:13;;;;;;;71.70;60.00;;;;;;;2.14;79.71;99619.59;4980645;28;20082;-83
2021/11/28 16:55:38;;;;;;;74.53;60.30;;;;;;;2.19;79.65;99629.69;4999029;28;20029;-85
2021/11/28 16:58:05;;;;;;;90.35;62.85;;;;;;;2.01;80.21;99628.22;4981630;28;20272;-83
2021/11/28 17:00:30;;;;;;;84.28;62.40;;;;;;;1.95;80.09;99618.97;4994480;28;20019;-85
2021/11/28 17:02:55;;;;;;;75.77;60.13;;;;;;;2.08;79.76;99637.44;4975741;28;20018;-85
2021/11/28 17:05:23;;;;;;;74.57;60.40;;;;;;;2.02;79.69;99645.13;4972711;28;20019;-84
2021/11/28 17:07:49;;;;;;;77.40;60.90;;;;;;;1.74;80.69;99630.19;4982435;28;20089;-83
2021/11/28 17:10:20;;;;;;;75.70;61.23;;;;;;;2.01;80.42;99645.16;4978700;28;20054;-84
2021/11/28 17:12:51;;;;;;;75.35;59.20;;;;;;;2.01;80.72;99645.97;4974043;28;20038;-85
2021/11/28 17:15:16;;;;;;;72.88;60.67;;;;;;;1.90;80.07;99643.56;4953667;29;20101;-84
2021/11/28 17:17:42;;;;;;;73.33;60.67;;;;;;;1.88;80.64;99650.34;4971639;28;20019;-84
2021/11/28 17:20:08;;;;;;;69.37;58.00;;;;;;;1.87;80.52;99648.66;4968092;29;20093;-83
2021/11/28 17:22:33;;;;;;;65.88;57.22;;;;;;;1.85;80.78;99635.16;4974527;28;20031;-84
2021/11/28 17:24:58;;;;;;;73.67;57.67;;;;;;;1.92;80.77;99636.75;4957170;28;20019;-84
2021/11/28 17:27:24;;;;;;;69.73;58.07;;;;;;;2.03;80.57;99640.88;4980767;28;20093;-84
2021/11/28 17:29:49;;;;;;;73.27;58.80;;;;;;;2.01;79.97;99653.59;4977225;28;20116;-83
2021/11/28 17:32:15;;;;;;;67.30;58.00;;;;;;;1.98;79.77;99643.47;4993535;28;20023;-84
2021/11/28 17:34:40;;;;;;;72.20;58.13;;;;;;;1.97;79.91;99654.47;4994098;28;20054;-84
2021/11/28 17:37:07;;;;;;;81.33;61.03;;;;;;;1.92;80.00;99651.16;4963385;28;20039;-82
2021/11/28 17:39:35;;;;;;;69.35;58.05;;;;;;;1.96;80.28;99658.72;4995979;28;20023;-83
2021/11/28 17:42:01;;;;;;;72.50;57.85;;;;;;;1.93;80.18;99661.28;4994038;28;20066;-83
2021/11/28 17:44:29;;;;;;;71.40;58.25;;;;;;;1.93;80.00;99666.34;4992204;28;20011;-83
2021/11/28 17:46:55;;;;;;;71.18;57.70;;;;;;;1.75;79.59;99647.09;4975435;28;20027;-85
2021/11/28 17:49:21;;;;;;;76.05;59.50;;;;;;;1.86;79.99;99664.75;4979553;28;20078;-83
2021/11/28 17:51:46;;;;;;;74.17;59.80;;;;;;;1.85;79.54;99663.06;4978841;28;20066;-84
2021/11/28 17:54:11;;;;;;;70.63;58.43;;;;;;;1.82;79.81;99663.09;4995226;28;20046;-84
2021/11/28 17:56:37;;;;;;;74.30;59.50;;;;;;;1.74;80.35;99659.78;4993868;28;20002;-84
2021/11/28 17:59:03;;;;;;;74.03;58.93;;;;;;;1.72;80.06;99666.53;4975169;28;20037;-85
2021/11/28 18:01:29;;;;;;;69.43;58.15;;;;;;;1.79;80.34;99671.53;4972031;28;20517;-85
2021/11/28 18:03:55;;;;;;;72.43;58.80;;;;;;;1.84;80.17;99686.72;4972096;28;20020;-84
2021/11/28 18:06:21;;;;;;;72.90;58.40;;;;;;;1.89;79.68;99684.16;4973534;28;20031;-84
2021/11/28 18:08:46;;;;;;;70.50;59.28;;;;;;;1.82;79.74;99698.59;4954609;29;20034;-84
2021/11/28 18:11:12;;;;;;;65.87;57.23;;;;;;;1.93;79.64;99690.88;4964002;28;20015;-85
2021/11/28 18:13:38;;;;;;;73.00;60.07;;;;;;;1.81;79.13;99686.75;4953767;29;20062;-83
2021/11/28 18:16:04;;;;;;;68.43;57.17;;;;;;;1.90;79.12;99679.06;4961071;29;20046;-83
2021/11/28 18:18:30;;;;;;;;;;;;;;;1.95;78.89;99705.22;4953588;29;20517;-85
2021/11/28 18:20:55;;;;;;;73.90;58.88;;;;;;;1.99;78.89;99701.78;4986461;28;19957;-85
2021/11/28 18:23:21;;;;;;;76.97;60.07;;;;;;;1.94;79.13;99705.22;4989015;28;20013;-85
2021/11/28 18:25:47;;;;;;;68.50;58.90;;;;;;;1.84;78.73;99721.41;4990099;28;20022;-85
2021/11/28 18:28:13;;;;;;;80.65;60.22;;;;;;;1.91;78.79;99715.38;4975430;28;20034;-84
2021/11/28 18:30:41;;;;;;;70.07;58.75;;;;;;;1.88;78.65;99702.75;4972242;28;20067;-83
2021/11/28 18:33:06;;;;;;;79.93;60.85;;;;;;;1.84;78.98;99719.69;4990709;28;20094;-85
2021/11/28 18:35:33;;;;;;;75.17;59.67;;;;;;;1.85;78.53;99718.84;4991620;28;20023;-84
2021/11/28 18:37:59;;;;;;;78.88;61.28;;;;;;;1.68;79.22;99711.38;4972089;28;20131;-85
2021/11/28 18:40:24;;;;;;;71.53;58.00;;;;;;;1.78;79.51;99719.75;4971225;28;20027;-84
2021/11/28 18:42:50;;;;;;;73.85;59.45;;;;;;;1.59;79.03;99722.44;4972935;28;20478;-84
2021/11/28 18:45:18;;;;;;;70.30;58.80;;;;;;;1.63;79.48;99708.88;4973145;28;20094;-85
2021/11/28 18:47:43;;;;;;;70.35;59.65;;;;;;;1.79;79.04;99718.91;4971073;28;20031;-85
2021/11/28 18:50:14;;;;;;;73.83;59.23;;;;;;;1.76;79.36;99719.75;4971955;28;20116;-85
2021/11/28 18:52:40;;;;;;;75.65;60.40;;;;;;;1.69;78.71;99713.06;4972888;28;20027;-84